Antioch, South Carolina
Current Conditions -  °F | °C
As of 6:15 AM on Friday 31 Oct 2014 (Local Time) from KCDN Reporting Station
Clear Clear  
Wind Chill:   Ceiling: Unl
Heat Index:   Visibility: 10mi
Dew Point:   Wind: 3mph
Humidity: 81%   Direction: 30°NNE
Pressure: 29.94"   Gusts: NA
Location:  34.2974°N, 80.6089°W
Report Text: KCDN 311015Z AUTO 03003KT 10SM CLR 08/05 A2994 RMK AO2 TSNO
Loading
Personal Weather Stations






























Interactive Weather Map
Tropical Storm Tracking
New forecast layout! Learn more

10-Day Weather Forecast

Advertisements
Track Severe Weather on mobile